sensor_id;sensor_type;location;lat;lon;timestamp;P1;P2;P0
55076;PMS7003;40971;44.702;11.030;2023-02-27T00:06:50;0.25;0.25;0.25
55076;PMS7003;40971;44.702;11.030;2023-02-27T00:16:52;0.25;0.25;0.00
55076;PMS7003;40971;44.702;11.030;2023-02-27T00:26:53;0.00;0.00;0.00
55076;PMS7003;40971;44.702;11.030;2023-02-27T00:36:54;0.00;0.00;0.00
55076;PMS7003;40971;44.702;11.030;2023-02-27T00:46:55;0.00;0.00;0.00
55076;PMS7003;40971;44.702;11.030;2023-02-27T00:56:56;0.00;0.00;0.00
55076;PMS7003;40971;44.702;11.030;2023-02-27T01:06:57;0.00;0.00;0.00
55076;PMS7003;40971;44.702;11.030;2023-02-27T01:16:58;0.00;0.00;0.00
55076;PMS7003;40971;44.702;11.030;2023-02-27T01:26:59;0.00;0.00;0.00
55076;PMS7003;40971;44.702;11.030;2023-02-27T01:37:00;0.00;0.00;0.00
55076;PMS7003;40971;44.702;11.030;2023-02-27T01:47:02;0.00;0.00;0.00
55076;PMS7003;40971;44.702;11.030;2023-02-27T01:57:03;0.00;0.00;0.00
55076;PMS7003;40971;44.702;11.030;2023-02-27T02:07:07;0.67;0.67;0.00
55076;PMS7003;40971;44.702;11.030;2023-02-27T02:27:36;1.00;1.00;0.00
55076;PMS7003;40971;44.702;11.030;2023-02-27T02:48:03;0.00;0.00;0.00
55076;PMS7003;40971;44.702;11.030;2023-02-27T03:08:54;3.00;3.00;1.00
55076;PMS7003;40971;44.702;11.030;2023-02-27T03:29:21;0.00;0.00;0.00
55076;PMS7003;40971;44.702;11.030;2023-02-27T03:49:39;0.00;0.00;0.00
55076;PMS7003;40971;44.702;11.030;2023-02-27T03:59:41;1.00;1.00;0.00
55076;PMS7003;40971;44.702;11.030;2023-02-27T04:40:38;0.00;0.00;0.00
55076;PMS7003;40971;44.702;11.030;2023-02-27T04:50:57;2.33;2.33;0.67
55076;PMS7003;40971;44.702;11.030;2023-02-27T05:01:15;0.00;0.00;0.00
55076;PMS7003;40971;44.702;11.030;2023-02-27T05:11:25;0.00;0.00;0.00
55076;PMS7003;40971;44.702;11.030;2023-02-27T05:21:37;1.00;1.00;0.00
55076;PMS7003;40971;44.702;11.030;2023-02-27T05:42:35;1.00;1.00;1.00
55076;PMS7003;40971;44.702;11.030;2023-02-27T05:52:40;1.00;1.00;0.00
55076;PMS7003;40971;44.702;11.030;2023-02-27T06:02:45;1.00;0.00;0.00
55076;PMS7003;40971;44.702;11.030;2023-02-27T06:12:47;1.50;1.50;0.00
55076;PMS7003;40971;44.702;11.030;2023-02-27T06:22:48;0.00;0.00;0.00
55076;PMS7003;40971;44.702;11.030;2023-02-27T06:32:49;1.50;1.00;0.00
55076;PMS7003;40971;44.702;11.030;2023-02-27T06:42:50;0.00;0.00;0.00
55076;PMS7003;40971;44.702;11.030;2023-02-27T06:52:51;0.75;0.75;0.00
55076;PMS7003;40971;44.702;11.030;2023-02-27T07:02:53;0.25;0.25;0.00
55076;PMS7003;40971;44.702;11.030;2023-02-27T07:12:54;1.67;1.00;1.00
55076;PMS7003;40971;44.702;11.030;2023-02-27T07:22:55;1.00;1.00;1.00
55076;PMS7003;40971;44.702;11.030;2023-02-27T07:32:57;4.00;4.00;1.00
55076;PMS7003;40971;44.702;11.030;2023-02-27T07:42:58;1.00;1.00;0.67
55076;PMS7003;40971;44.702;11.030;2023-02-27T07:53:00;1.50;1.50;1.00
55076;PMS7003;40971;44.702;11.030;2023-02-27T08:03:02;4.00;3.00;1.00
55076;PMS7003;40971;44.702;11.030;2023-02-27T08:13:03;0.67;0.67;0.00
55076;PMS7003;40971;44.702;11.030;2023-02-27T08:23:05;1.00;1.00;0.00
55076;PMS7003;40971;44.702;11.030;2023-02-27T08:33:07;3.50;3.50;1.00
55076;PMS7003;40971;44.702;11.030;2023-02-27T08:43:08;3.50;1.00;1.00
55076;PMS7003;40971;44.702;11.030;2023-02-27T08:53:10;3.00;3.00;1.00
55076;PMS7003;40971;44.702;11.030;2023-02-27T09:03:13;2.25;2.00;1.00
55076;PMS7003;40971;44.702;11.030;2023-02-27T09:13:15;4.00;3.00;1.00
55076;PMS7003;40971;44.702;11.030;2023-02-27T09:23:17;1.50;1.50;0.75
55076;PMS7003;40971;44.702;11.030;2023-02-27T09:33:18;3.25;3.25;2.00
55076;PMS7003;40971;44.702;11.030;2023-02-27T09:43:41;3.00;3.00;1.00
55076;PMS7003;40971;44.702;11.030;2023-02-27T09:54:04;0.50;0.50;0.25
55076;PMS7003;40971;44.702;11.030;2023-02-27T10:14:16;3.00;3.00;3.00
55076;PMS7003;40971;44.702;11.030;2023-02-27T10:24:34;3.50;2.00;1.00
55076;PMS7003;40971;44.702;11.030;2023-02-27T10:34:40;3.00;3.00;3.00
55076;PMS7003;40971;44.702;11.030;2023-02-27T10:44:43;6.00;6.00;1.00
55076;PMS7003;40971;44.702;11.030;2023-02-27T10:54:45;1.00;1.00;1.00
55076;PMS7003;40971;44.702;11.030;2023-02-27T11:04:54;5.33;5.33;3.00
55076;PMS7003;40971;44.702;11.030;2023-02-27T11:15:00;6.00;6.00;3.00
55076;PMS7003;40971;44.702;11.030;2023-02-27T11:35:30;7.00;7.00;4.00
55076;PMS7003;40971;44.702;11.030;2023-02-27T11:45:40;4.00;4.00;3.00
55076;PMS7003;40971;44.702;11.030;2023-02-27T11:55:42;6.00;4.00;1.00
55076;PMS7003;40971;44.702;11.030;2023-02-27T12:36:19;6.50;6.50;3.50
55076;PMS7003;40971;44.702;11.030;2023-02-27T12:46:32;7.00;7.00;6.00
55076;PMS7003;40971;44.702;11.030;2023-02-27T12:57:28;4.00;4.00;3.50
55076;PMS7003;40971;44.702;11.030;2023-02-27T13:07:26;6.00;4.00;3.00
55076;PMS7003;40971;44.702;11.030;2023-02-27T13:17:37;7.00;7.00;4.00
55076;PMS7003;40971;44.702;11.030;2023-02-27T13:27:43;6.50;6.50;4.00
55076;PMS7003;40971;44.702;11.030;2023-02-27T13:47:55;8.50;6.75;4.00
55076;PMS7003;40971;44.702;11.030;2023-02-27T13:57:57;4.50;4.50;3.50
55076;PMS7003;40971;44.702;11.030;2023-02-27T14:08:07;6.00;6.00;5.00
55076;PMS7003;40971;44.702;11.030;2023-02-27T14:18:44;9.00;9.00;6.00
55076;PMS7003;40971;44.702;11.030;2023-02-27T14:28:53;9.00;9.00;5.00
55076;PMS7003;40971;44.702;11.030;2023-02-27T14:38:56;12.50;11.00;6.00
55076;PMS7003;40971;44.702;11.030;2023-02-27T14:49:00;6.00;6.00;4.00
55076;PMS7003;40971;44.702;11.030;2023-02-27T14:59:17;10.00;9.00;4.00
55076;PMS7003;40971;44.702;11.030;2023-02-27T15:09:29;6.25;6.25;5.50
55076;PMS7003;40971;44.702;11.030;2023-02-27T15:19:35;8.00;6.50;4.00
55076;PMS7003;40971;44.702;11.030;2023-02-27T15:29:58;9.00;9.00;4.00
55076;PMS7003;40971;44.702;11.030;2023-02-27T15:39:58;9.00;8.00;6.00
55076;PMS7003;40971;44.702;11.030;2023-02-27T16:00:31;9.00;7.00;4.00
55076;PMS7003;40971;44.702;11.030;2023-02-27T16:10:41;5.50;5.00;4.00
55076;PMS7003;40971;44.702;11.030;2023-02-27T16:20:48;8.00;8.00;6.00
55076;PMS7003;40971;44.702;11.030;2023-02-27T16:30:55;10.00;10.00;6.00
55076;PMS7003;40971;44.702;11.030;2023-02-27T16:40:56;6.00;6.00;4.00
55076;PMS7003;40971;44.702;11.030;2023-02-27T16:51:00;16.00;16.00;10.67
55076;PMS7003;40971;44.702;11.030;2023-02-27T17:01:01;9.00;9.00;6.00
55076;PMS7003;40971;44.702;11.030;2023-02-27T17:11:02;12.00;9.00;7.00
55076;PMS7003;40971;44.702;11.030;2023-02-27T17:21:04;9.00;7.00;6.00
55076;PMS7003;40971;44.702;11.030;2023-02-27T17:31:07;6.75;6.75;3.75
55076;PMS7003;40971;44.702;11.030;2023-02-27T17:41:10;16.00;16.00;12.00
55076;PMS7003;40971;44.702;11.030;2023-02-27T17:51:13;10.00;10.00;8.00
55076;PMS7003;40971;44.702;11.030;2023-02-27T18:01:17;12.50;12.00;7.00
55076;PMS7003;40971;44.702;11.030;2023-02-27T18:11:21;8.25;8.00;5.00
55076;PMS7003;40971;44.702;11.030;2023-02-27T18:21:23;18.00;18.00;12.00
55076;PMS7003;40971;44.702;11.030;2023-02-27T18:31:25;11.00;10.25;8.00
55076;PMS7003;40971;44.702;11.030;2023-02-27T18:41:32;15.00;12.00;7.00
55076;PMS7003;40971;44.702;11.030;2023-02-27T18:51:33;16.00;16.00;11.00
55076;PMS7003;40971;44.702;11.030;2023-02-27T19:01:35;14.00;12.50;10.00
55076;PMS7003;40971;44.702;11.030;2023-02-27T19:11:37;9.00;9.00;7.00
55076;PMS7003;40971;44.702;11.030;2023-02-27T19:21:39;10.00;10.00;6.67
55076;PMS7003;40971;44.702;11.030;2023-02-27T19:31:41;15.00;13.67;9.33
55076;PMS7003;40971;44.702;11.030;2023-02-27T19:41:44;18.33;18.00;12.67
55076;PMS7003;40971;44.702;11.030;2023-02-27T19:51:46;14.00;12.50;10.00
55076;PMS7003;40971;44.702;11.030;2023-02-27T20:01:47;15.00;10.00;3.00
55076;PMS7003;40971;44.702;11.030;2023-02-27T20:11:50;15.00;13.00;10.00
55076;PMS7003;40971;44.702;11.030;2023-02-27T20:21:53;15.50;13.00;9.00
55076;PMS7003;40971;44.702;11.030;2023-02-27T20:31:56;13.00;13.00;9.00
55076;PMS7003;40971;44.702;11.030;2023-02-27T20:41:57;13.00;12.50;8.00
55076;PMS7003;40971;44.702;11.030;2023-02-27T20:51:58;15.67;13.67;9.33
55076;PMS7003;40971;44.702;11.030;2023-02-27T21:02:00;18.00;18.00;13.00
55076;PMS7003;40971;44.702;11.030;2023-02-27T21:12:04;16.00;14.00;9.50
55076;PMS7003;40971;44.702;11.030;2023-02-27T21:22:06;18.00;18.00;11.00
55076;PMS7003;40971;44.702;11.030;2023-02-27T21:32:13;19.86;18.43;12.86
55076;PMS7003;40971;44.702;11.030;2023-02-27T21:42:15;15.00;15.00;12.00
55076;PMS7003;40971;44.702;11.030;2023-02-27T21:52:17;10.00;10.00;7.00
55076;PMS7003;40971;44.702;11.030;2023-02-27T22:02:18;12.00;12.00;9.00
55076;PMS7003;40971;44.702;11.030;2023-02-27T22:12:20;20.33;19.00;10.00
55076;PMS7003;40971;44.702;11.030;2023-02-27T22:22:21;12.50;10.00;7.00
55076;PMS7003;40971;44.702;11.030;2023-02-27T22:32:23;13.25;9.50;7.00
55076;PMS7003;40971;44.702;11.030;2023-02-27T22:42:24;11.00;11.00;8.50
55076;PMS7003;40971;44.702;11.030;2023-02-27T22:52:25;12.00;9.67;7.00
55076;PMS7003;40971;44.702;11.030;2023-02-27T23:02:26;10.00;10.00;7.00
55076;PMS7003;40971;44.702;11.030;2023-02-27T23:12:32;15.50;13.00;8.00
55076;PMS7003;40971;44.702;11.030;2023-02-27T23:22:34;11.00;11.00;7.50
55076;PMS7003;40971;44.702;11.030;2023-02-27T23:32:35;11.33;11.33;7.00
55076;PMS7003;40971;44.702;11.030;2023-02-27T23:42:43;11.00;11.00;7.00
55076;PMS7003;40971;44.702;11.030;2023-02-27T23:52:44;16.00;13.00;10.00
